createdAt,value
2023-03-02T00:00:43.330Z,31.27
2023-03-02T00:03:11.092Z,30.17
2023-03-02T00:05:41.098Z,36.80
2023-03-02T00:08:09.946Z,34.15
2023-03-02T00:10:38.265Z,30.50
2023-03-02T00:13:05.490Z,31.80
2023-03-02T00:15:32.504Z,35.67
2023-03-02T00:18:00.815Z,38.50
2023-03-02T00:20:27.771Z,35.58
2023-03-02T00:22:57.082Z,40.45
2023-03-02T00:25:23.979Z,37.38
2023-03-02T00:27:50.915Z,37.05
2023-03-02T00:30:18.069Z,38.70
2023-03-02T00:32:45.909Z,36.97
2023-03-02T00:35:14.262Z,38.28
2023-03-02T00:37:41.186Z,37.78
2023-03-02T00:40:09.723Z,46.53
2023-03-02T00:42:37.160Z,35.75
2023-03-02T00:45:04.909Z,38.45
2023-03-02T00:47:33.591Z,34.67
2023-03-02T00:50:01.637Z,42.97
2023-03-02T00:52:30.604Z,36.35
2023-03-02T00:54:57.882Z,42.45
2023-03-02T00:57:25.326Z,41.85
2023-03-02T00:59:54.064Z,37.17
2023-03-02T01:02:28.169Z,45.28
2023-03-02T01:04:55.721Z,44.88
2023-03-02T01:07:24.966Z,49.08
2023-03-02T01:09:53.262Z,50.30
2023-03-02T01:12:22.343Z,48.30
2023-03-02T01:14:50.916Z,40.22
2023-03-02T01:17:19.303Z,47.67
2023-03-02T01:19:49.652Z,49.00
2023-03-02T01:22:20.496Z,50.22
2023-03-02T01:24:47.453Z,55.55
2023-03-02T01:27:15.976Z,53.45
2023-03-02T01:29:43.056Z,48.30
2023-03-02T01:32:10.060Z,52.60
2023-03-02T01:34:37.280Z,51.25
2023-03-02T01:37:04.200Z,54.75
2023-03-02T01:39:31.201Z,49.13
2023-03-02T01:41:58.150Z,55.33
2023-03-02T01:44:39.811Z,50.13
2023-03-02T01:47:15.203Z,50.05
2023-03-02T01:49:53.191Z,46.05
2023-03-02T01:52:21.012Z,59.70
2023-03-02T01:54:50.009Z,51.05
2023-03-02T01:57:23.253Z,45.38
2023-03-02T01:59:56.336Z,55.92
2023-03-02T02:02:23.670Z,45.90
2023-03-02T02:04:53.057Z,49.35
2023-03-02T02:07:20.048Z,49.25
2023-03-02T02:09:49.673Z,52.00
2023-03-02T02:12:19.371Z,47.00
2023-03-02T02:14:48.121Z,45.10
2023-03-02T02:17:18.079Z,48.63
2023-03-02T02:20:00.530Z,48.95
2023-03-02T02:22:38.539Z,53.08
2023-03-02T02:25:16.395Z,47.90
2023-03-02T02:27:45.821Z,47.30
2023-03-02T02:30:15.390Z,43.80
2023-03-02T02:32:44.348Z,43.28
2023-03-02T02:35:15.263Z,47.30
2023-03-02T02:37:45.539Z,43.90
2023-03-02T02:40:18.558Z,41.38
2023-03-02T02:42:53.384Z,42.80
2023-03-02T02:45:24.374Z,43.47
2023-03-02T02:47:52.296Z,41.88
2023-03-02T02:50:25.265Z,46.58
2023-03-02T02:52:58.993Z,47.38
2023-03-02T02:55:27.356Z,42.40
2023-03-02T02:57:59.574Z,43.88
2023-03-02T03:00:27.298Z,42.03
2023-03-02T03:03:00.191Z,46.30
2023-03-02T03:05:27.497Z,47.28
2023-03-02T03:08:07.100Z,47.85
2023-03-02T03:10:40.179Z,45.70
2023-03-02T03:13:11.641Z,45.20
2023-03-02T03:15:39.309Z,47.13
2023-03-02T03:18:06.354Z,39.00
2023-03-02T03:20:33.440Z,45.10
2023-03-02T03:23:00.883Z,42.70
2023-03-02T03:25:32.130Z,38.17
2023-03-02T03:27:59.826Z,35.97
2023-03-02T03:30:28.161Z,36.38
2023-03-02T03:32:58.234Z,35.08
2023-03-02T03:35:25.674Z,37.10
2023-03-02T03:37:53.084Z,36.78
2023-03-02T03:40:20.397Z,30.90
2023-03-02T03:42:48.178Z,35.33
2023-03-02T03:45:15.304Z,31.40
2023-03-02T03:47:45.314Z,34.45
2023-03-02T03:50:12.614Z,30.35
2023-03-02T03:52:40.449Z,29.83
2023-03-02T03:55:15.416Z,31.00
2023-03-02T03:57:44.198Z,31.05
2023-03-02T04:00:18.180Z,28.20
2023-03-02T04:02:55.296Z,32.63
2023-03-02T04:05:23.268Z,28.13
2023-03-02T04:07:53.124Z,28.85
2023-03-02T04:10:21.065Z,31.80
2023-03-02T04:12:48.802Z,29.02
2023-03-02T04:15:17.060Z,26.83
2023-03-02T04:17:45.840Z,29.02
2023-03-02T04:20:17.410Z,27.70
2023-03-02T04:22:50.011Z,27.38
2023-03-02T04:25:19.868Z,29.10
2023-03-02T04:27:47.209Z,26.10
2023-03-02T04:30:15.661Z,26.08
2023-03-02T04:32:44.045Z,27.45
2023-03-02T04:35:11.833Z,25.55
2023-03-02T04:37:41.922Z,26.25
2023-03-02T04:40:11.871Z,28.10
2023-03-02T04:42:38.849Z,27.30
2023-03-02T04:45:06.857Z,25.63
2023-03-02T04:47:33.776Z,26.10
2023-03-02T04:50:02.389Z,24.50
2023-03-02T04:52:29.375Z,24.35
2023-03-02T04:54:57.848Z,25.83
2023-03-02T04:57:24.844Z,29.90
2023-03-02T04:59:51.822Z,27.23
2023-03-02T05:02:22.043Z,27.08
2023-03-02T05:04:49.400Z,28.20
2023-03-02T05:07:16.369Z,28.58
2023-03-02T05:09:43.320Z,30.00
2023-03-02T05:12:11.637Z,30.52
2023-03-02T05:14:38.602Z,26.45
2023-03-02T05:17:05.521Z,28.80
2023-03-02T05:19:32.525Z,29.00
2023-03-02T05:21:59.490Z,33.90
2023-03-02T05:24:26.810Z,30.60
2023-03-02T05:26:53.847Z,32.47
2023-03-02T05:29:22.456Z,33.75
2023-03-02T05:31:49.998Z,31.73
2023-03-02T05:34:17.409Z,32.50
2023-03-02T05:36:45.320Z,32.40
2023-03-02T05:39:12.563Z,29.10
2023-03-02T05:41:40.346Z,28.83
2023-03-02T05:44:09.595Z,32.42
2023-03-02T05:46:38.407Z,31.75
2023-03-02T05:49:05.827Z,31.65
2023-03-02T05:51:32.769Z,29.15
2023-03-02T05:53:59.789Z,30.52
2023-03-02T05:56:26.984Z,31.90
2023-03-02T05:58:53.907Z,32.35
2023-03-02T06:01:20.816Z,28.98
2023-03-02T06:03:52.152Z,32.25
2023-03-02T06:06:19.139Z,28.65
2023-03-02T06:08:46.221Z,29.30
2023-03-02T06:11:13.221Z,32.90
2023-03-02T06:13:42.854Z,33.13
2023-03-02T06:16:10.348Z,31.45
2023-03-02T06:18:40.342Z,32.95
2023-03-02T06:21:10.037Z,31.42
2023-03-02T06:23:36.981Z,36.75
2023-03-02T06:26:08.299Z,28.90
2023-03-02T06:28:49.737Z,30.63
2023-03-02T06:31:18.242Z,31.00
2023-03-02T06:33:45.168Z,36.35
2023-03-02T06:36:15.060Z,33.53
2023-03-02T06:38:42.023Z,28.48
2023-03-02T06:41:08.975Z,32.15
2023-03-02T06:43:35.921Z,28.13
2023-03-02T06:46:02.985Z,37.88
2023-03-02T06:48:29.921Z,35.42
2023-03-02T06:50:56.859Z,33.28
2023-03-02T06:53:25.367Z,28.02
2023-03-02T06:55:52.453Z,29.17
2023-03-02T06:58:19.686Z,31.40
2023-03-02T07:00:46.698Z,26.20
2023-03-02T07:03:16.765Z,29.90
2023-03-02T07:05:46.078Z,27.63
2023-03-02T07:08:13.270Z,26.30
2023-03-02T07:10:41.547Z,25.48
2023-03-02T07:13:09.347Z,27.25
2023-03-02T07:15:39.002Z,29.05
2023-03-02T07:18:06.226Z,27.60
2023-03-02T07:20:34.247Z,25.52
2023-03-02T07:23:01.249Z,24.38
2023-03-02T07:25:29.562Z,37.55
2023-03-02T07:27:57.832Z,25.27
2023-03-02T07:30:24.771Z,28.27
2023-03-02T07:32:51.890Z,25.48
2023-03-02T07:35:20.804Z,25.20
2023-03-02T07:37:47.809Z,23.80
2023-03-02T07:40:14.931Z,24.00
2023-03-02T07:42:41.897Z,27.27
2023-03-02T07:45:11.680Z,28.58
2023-03-02T07:47:38.600Z,24.48
2023-03-02T07:50:06.507Z,23.85
2023-03-02T07:52:33.423Z,24.65
2023-03-02T07:55:00.339Z,26.77
2023-03-02T07:57:27.407Z,27.27
2023-03-02T07:59:54.321Z,24.15
2023-03-02T08:02:25.684Z,24.65
2023-03-02T08:04:53.449Z,26.05
2023-03-02T08:07:20.528Z,24.63
2023-03-02T08:09:49.857Z,25.92
2023-03-02T08:12:16.811Z,24.35
2023-03-02T08:14:44.273Z,27.77
2023-03-02T08:17:11.185Z,25.77
2023-03-02T08:19:39.501Z,29.38
2023-03-02T08:22:06.493Z,26.45
2023-03-02T08:24:33.529Z,26.55
2023-03-02T08:27:02.098Z,28.00
2023-03-02T08:29:29.404Z,27.25
2023-03-02T08:31:59.233Z,30.35
2023-03-02T08:34:26.510Z,27.48
2023-03-02T08:37:00.891Z,24.35
2023-03-02T08:39:30.448Z,30.42
2023-03-02T08:41:57.677Z,27.23
2023-03-02T08:44:24.672Z,25.45
2023-03-02T08:46:51.979Z,25.02
2023-03-02T08:49:19.728Z,27.70
2023-03-02T08:51:49.088Z,29.02
2023-03-02T08:54:17.757Z,27.48
2023-03-02T08:56:44.720Z,26.83
2023-03-02T08:59:13.787Z,26.90
2023-03-02T09:01:41.436Z,26.73
2023-03-02T09:04:10.244Z,28.63
2023-03-02T09:06:39.891Z,28.90
2023-03-02T09:09:08.015Z,31.33
2023-03-02T09:11:36.746Z,24.23
2023-03-02T09:14:03.936Z,35.28
2023-03-02T09:16:32.097Z,30.63
2023-03-02T09:18:59.082Z,34.17
2023-03-02T09:21:26.533Z,31.58
2023-03-02T09:23:55.812Z,28.23
2023-03-02T09:26:23.218Z,31.85
2023-03-02T09:28:51.686Z,36.40
2023-03-02T09:31:18.849Z,34.30
2023-03-02T09:33:45.849Z,40.83
2023-03-02T09:36:18.827Z,43.25
2023-03-02T09:38:45.931Z,40.15
2023-03-02T09:41:38.104Z,34.50
2023-03-02T09:44:16.689Z,36.70
2023-03-02T09:46:48.492Z,34.75
2023-03-02T09:49:28.606Z,39.13
2023-03-02T09:52:07.140Z,37.17
2023-03-02T09:54:35.467Z,41.15
2023-03-02T09:57:03.556Z,39.10
2023-03-02T09:59:38.339Z,35.88
2023-03-02T10:02:23.277Z,37.95
2023-03-02T10:04:53.377Z,33.50
2023-03-02T10:07:27.374Z,40.38
2023-03-02T10:09:55.628Z,36.78
2023-03-02T10:12:43.358Z,33.10
2023-03-02T10:15:16.668Z,40.47
2023-03-02T10:17:55.533Z,32.53
2023-03-02T10:20:34.075Z,37.08
2023-03-02T10:23:14.668Z,40.28
2023-03-02T10:25:48.707Z,33.13
2023-03-02T10:28:22.501Z,37.83
2023-03-02T10:30:58.323Z,33.60
2023-03-02T10:33:27.512Z,39.63
2023-03-02T10:35:54.608Z,38.40
2023-03-02T10:38:23.996Z,36.38
2023-03-02T10:40:59.791Z,34.85
2023-03-02T10:43:31.751Z,44.97
2023-03-02T10:46:01.267Z,43.08
2023-03-02T10:48:28.278Z,47.05
2023-03-02T10:50:56.423Z,46.33
2023-03-02T10:53:23.363Z,47.00
2023-03-02T10:55:52.654Z,44.28
2023-03-02T10:58:25.903Z,41.95
2023-03-02T11:00:57.737Z,48.28
2023-03-02T11:03:26.941Z,44.05
2023-03-02T11:05:56.731Z,45.47
2023-03-02T11:08:25.954Z,51.33
2023-03-02T11:10:57.057Z,39.92
2023-03-02T11:13:29.381Z,52.03
2023-03-02T11:15:59.872Z,40.72
2023-03-02T11:18:32.988Z,47.75
2023-03-02T11:21:05.621Z,47.13
2023-03-02T11:23:43.938Z,51.75
2023-03-02T11:26:18.130Z,48.05
2023-03-02T11:28:50.445Z,52.00
2023-03-02T11:31:24.238Z,50.45
2023-03-02T11:34:11.646Z,55.00
2023-03-02T11:36:50.467Z,49.65
2023-03-02T11:39:24.553Z,55.03
2023-03-02T11:41:54.049Z,48.72
2023-03-02T11:44:22.065Z,43.15
2023-03-02T11:46:54.303Z,53.47
2023-03-02T11:49:26.417Z,48.70
2023-03-02T11:51:58.734Z,47.28
2023-03-02T11:54:41.146Z,42.65
2023-03-02T11:57:19.589Z,46.67
2023-03-02T11:59:47.799Z,43.95
2023-03-02T12:02:15.593Z,43.83
2023-03-02T12:04:44.088Z,42.30
2023-03-02T12:07:22.832Z,41.53
2023-03-02T12:09:58.330Z,38.65
2023-03-02T12:12:41.126Z,40.30
2023-03-02T12:15:35.005Z,39.97
2023-03-02T12:18:02.071Z,36.63
2023-03-02T12:20:30.903Z,38.35
2023-03-02T12:23:09.385Z,37.38
2023-03-02T12:25:41.244Z,34.97
2023-03-02T12:28:26.753Z,39.47
2023-03-02T12:31:01.721Z,40.33
2023-03-02T12:33:28.978Z,47.20
2023-03-02T12:36:11.290Z,38.20
2023-03-02T12:38:41.196Z,44.47
2023-03-02T12:41:30.954Z,47.63
2023-03-02T12:44:18.545Z,46.72
2023-03-02T12:46:46.464Z,43.75
2023-03-02T12:49:35.504Z,44.45
2023-03-02T12:52:21.661Z,52.38
2023-03-02T12:55:00.621Z,40.85
2023-03-02T12:57:29.452Z,42.70
2023-03-02T12:59:58.577Z,43.13
2023-03-02T13:02:27.542Z,42.05
2023-03-02T13:04:56.729Z,38.67
2023-03-02T13:07:28.514Z,38.80
2023-03-02T13:09:58.331Z,40.97
2023-03-02T13:12:29.390Z,40.88
2023-03-02T13:14:58.206Z,41.65
2023-03-02T13:17:27.325Z,43.20
2023-03-02T13:19:54.924Z,47.63
2023-03-02T13:22:22.588Z,44.92
2023-03-02T13:24:56.049Z,37.00
2023-03-02T13:27:25.755Z,50.75
2023-03-02T13:29:55.590Z,40.35
2023-03-02T13:32:25.570Z,41.08
2023-03-02T13:34:54.277Z,50.28
2023-03-02T13:37:43.986Z,42.08
2023-03-02T13:40:40.677Z,36.65
2023-03-02T13:43:21.804Z,35.95
2023-03-02T13:45:53.648Z,34.63
2023-03-02T13:48:20.839Z,35.85
2023-03-02T13:50:57.183Z,36.70
2023-03-02T13:53:25.048Z,37.63
2023-03-02T13:55:54.603Z,38.58
2023-03-02T13:58:23.692Z,33.53
2023-03-02T14:00:51.592Z,32.08
2023-03-02T14:03:25.316Z,45.42
2023-03-02T14:05:52.842Z,40.35
2023-03-02T14:08:20.052Z,30.60
2023-03-02T14:10:47.858Z,35.65
2023-03-02T14:13:20.572Z,30.23
2023-03-02T14:15:50.156Z,37.30
2023-03-02T14:18:28.371Z,36.53
2023-03-02T14:20:55.567Z,44.35
2023-03-02T14:23:22.700Z,37.63
2023-03-02T14:25:50.441Z,43.80
2023-03-02T14:28:23.649Z,34.72
2023-03-02T14:30:53.706Z,31.65
2023-03-02T14:33:21.603Z,29.10
2023-03-02T14:35:52.484Z,34.92
2023-03-02T14:38:24.941Z,29.65
2023-03-02T14:40:52.031Z,32.20
2023-03-02T14:43:25.219Z,35.35
2023-03-02T14:45:52.961Z,34.38
2023-03-02T14:48:19.960Z,32.47
2023-03-02T14:50:50.034Z,40.92
2023-03-02T14:53:20.855Z,35.30
2023-03-02T14:55:47.958Z,34.65
2023-03-02T14:58:17.192Z,34.42
2023-03-02T15:00:46.825Z,37.25
2023-03-02T15:03:15.792Z,39.53
2023-03-02T15:05:59.044Z,43.17
2023-03-02T15:08:27.831Z,38.40
2023-03-02T15:10:56.642Z,42.45
2023-03-02T15:13:23.846Z,35.97
2023-03-02T15:15:52.912Z,38.13
2023-03-02T15:18:20.074Z,38.05
2023-03-02T15:20:47.232Z,38.35
2023-03-02T15:23:14.302Z,37.03
2023-03-02T15:25:44.021Z,33.00
2023-03-02T15:28:10.960Z,41.03
2023-03-02T15:30:37.935Z,40.58
2023-03-02T15:33:06.328Z,34.22
2023-03-02T15:35:33.294Z,40.22
2023-03-02T15:38:02.614Z,41.85
2023-03-02T15:40:29.579Z,40.55
2023-03-02T15:42:56.615Z,35.85
2023-03-02T15:45:23.606Z,35.47
2023-03-02T15:47:50.736Z,35.42
2023-03-02T15:50:19.082Z,35.63
2023-03-02T15:52:46.021Z,40.05
2023-03-02T15:55:15.468Z,42.35
2023-03-02T15:57:42.647Z,34.78
2023-03-02T16:00:13.411Z,43.22
2023-03-02T16:02:40.962Z,36.45
2023-03-02T16:05:09.168Z,42.70
2023-03-02T16:07:37.499Z,37.70
2023-03-02T16:10:05.532Z,34.20
2023-03-02T16:12:32.702Z,40.63
2023-03-02T16:14:59.717Z,37.65
2023-03-02T16:17:27.439Z,37.83
2023-03-02T16:19:54.337Z,43.53
2023-03-02T16:22:21.347Z,43.28
2023-03-02T16:24:50.617Z,41.92
2023-03-02T16:27:17.956Z,44.60
2023-03-02T16:29:45.179Z,42.75
2023-03-02T16:32:12.156Z,40.97
2023-03-02T16:34:39.173Z,42.90
2023-03-02T16:37:06.156Z,44.53
2023-03-02T16:39:33.200Z,39.08
2023-03-02T16:42:01.482Z,41.90
2023-03-02T16:44:28.427Z,44.92
2023-03-02T16:46:57.277Z,42.85
2023-03-02T16:49:24.554Z,37.65
2023-03-02T16:51:56.895Z,38.78
2023-03-02T16:54:23.857Z,39.35
2023-03-02T16:56:50.855Z,38.85
2023-03-02T16:59:19.184Z,44.78
2023-03-02T17:01:46.231Z,52.70
2023-03-02T17:04:13.281Z,58.00
2023-03-02T17:06:59.784Z,86.70
2023-03-02T17:09:27.983Z,69.57
2023-03-02T17:11:54.963Z,91.93
2023-03-02T17:14:23.378Z,56.80
2023-03-02T17:16:50.323Z,51.15
2023-03-02T17:19:17.282Z,45.33
2023-03-02T17:21:44.238Z,36.35
2023-03-02T17:24:11.221Z,39.95
2023-03-02T17:26:38.382Z,41.05
2023-03-02T17:29:05.660Z,45.53
2023-03-02T17:31:34.042Z,42.60
2023-03-02T17:34:01.163Z,40.33
2023-03-02T17:36:28.167Z,42.97
2023-03-02T17:38:55.256Z,38.83
2023-03-02T17:41:22.193Z,41.25
2023-03-02T17:43:49.252Z,40.22
2023-03-02T17:46:22.768Z,44.75
2023-03-02T17:48:54.204Z,46.95
2023-03-02T17:51:22.243Z,43.25
2023-03-02T17:53:50.854Z,48.28
2023-03-02T17:56:20.201Z,43.05
2023-03-02T17:58:47.093Z,47.97
2023-03-02T18:01:15.944Z,51.25
2023-03-02T18:03:45.116Z,60.75
2023-03-02T18:06:14.527Z,57.78
2023-03-02T18:08:41.494Z,51.50
2023-03-02T18:11:08.596Z,59.65
2023-03-02T18:13:35.960Z,52.92
2023-03-02T18:16:03.151Z,50.50
2023-03-02T18:18:30.221Z,49.47
2023-03-02T18:20:57.161Z,47.28
2023-03-02T18:23:25.626Z,49.38
2023-03-02T18:25:52.798Z,49.42
2023-03-02T18:28:20.063Z,52.97
2023-03-02T18:30:47.269Z,44.00
2023-03-02T18:33:14.482Z,51.25
2023-03-02T18:35:41.486Z,60.55
2023-03-02T18:38:08.877Z,58.30
2023-03-02T18:40:37.303Z,58.88
2023-03-02T18:43:04.309Z,52.55
2023-03-02T18:45:32.512Z,51.33
2023-03-02T18:48:00.302Z,54.45
2023-03-02T18:50:28.787Z,52.20
2023-03-02T18:52:55.723Z,49.35
2023-03-02T18:55:23.939Z,62.47
2023-03-02T18:57:55.431Z,77.05
2023-03-02T19:00:27.593Z,79.22
2023-03-02T19:02:55.059Z,68.03
2023-03-02T19:05:22.785Z,54.85
2023-03-02T19:07:50.163Z,52.67
2023-03-02T19:10:19.091Z,54.38
2023-03-02T19:12:47.017Z,42.92
2023-03-02T19:15:16.036Z,45.35
2023-03-02T19:17:43.714Z,44.08
2023-03-02T19:20:13.985Z,43.97
2023-03-02T19:22:40.922Z,42.60
2023-03-02T19:25:08.787Z,45.33
2023-03-02T19:27:36.206Z,47.10
2023-03-02T19:30:03.432Z,46.13
2023-03-02T19:32:32.082Z,50.30
2023-03-02T19:34:59.636Z,47.90
2023-03-02T19:37:26.585Z,47.28
2023-03-02T19:39:53.753Z,49.55
2023-03-02T19:42:20.720Z,48.08
2023-03-02T19:44:47.605Z,47.10
2023-03-02T19:47:14.664Z,48.70
2023-03-02T19:49:42.998Z,53.50
2023-03-02T19:52:09.880Z,50.83
2023-03-02T19:54:36.776Z,49.10
2023-03-02T19:57:03.744Z,52.45
2023-03-02T19:59:32.506Z,51.20
2023-03-02T20:01:59.562Z,53.15
2023-03-02T20:04:26.814Z,57.40
2023-03-02T20:06:55.579Z,58.80
2023-03-02T20:09:24.518Z,56.08
2023-03-02T20:11:51.471Z,50.88
2023-03-02T20:14:32.614Z,53.35
2023-03-02T20:17:00.961Z,61.72
2023-03-02T20:19:28.061Z,81.43
2023-03-02T20:21:56.835Z,56.92
2023-03-02T20:24:23.998Z,54.53
2023-03-02T20:26:51.039Z,62.88
2023-03-02T20:29:18.236Z,55.72
2023-03-02T20:31:45.210Z,58.67
2023-03-02T20:34:15.993Z,56.28
2023-03-02T20:36:43.478Z,52.58
2023-03-02T20:39:15.811Z,55.97
2023-03-02T20:41:43.592Z,57.03
2023-03-02T20:44:14.154Z,58.90
2023-03-02T20:46:44.886Z,67.43
2023-03-02T20:49:15.513Z,54.50
2023-03-02T20:51:45.519Z,62.53
2023-03-02T20:54:13.889Z,53.47
2023-03-02T20:56:41.251Z,54.70
2023-03-02T20:59:08.195Z,55.75
2023-03-02T21:01:36.276Z,59.28
2023-03-02T21:04:03.315Z,47.83
2023-03-02T21:06:33.388Z,48.30
2023-03-02T21:09:01.087Z,57.65
2023-03-02T21:11:30.362Z,54.05
2023-03-02T21:13:59.365Z,54.15
2023-03-02T21:16:30.544Z,49.88
2023-03-02T21:18:57.532Z,55.15
2023-03-02T21:21:40.351Z,51.05
2023-03-02T21:24:16.859Z,52.42
2023-03-02T21:26:47.190Z,46.80
2023-03-02T21:29:15.017Z,52.90
2023-03-02T21:31:43.785Z,51.00
2023-03-02T21:34:12.033Z,51.10
2023-03-02T21:36:41.408Z,46.22
2023-03-02T21:39:12.005Z,48.92
2023-03-02T21:41:42.030Z,48.58
2023-03-02T21:44:10.376Z,46.58
2023-03-02T21:46:37.966Z,50.90
2023-03-02T21:49:04.991Z,47.03
2023-03-02T21:51:32.417Z,47.38
2023-03-02T21:53:59.429Z,53.10
2023-03-02T21:56:27.211Z,45.67
2023-03-02T21:58:55.573Z,52.92
2023-03-02T22:01:29.773Z,46.92
2023-03-02T22:03:57.055Z,49.08
2023-03-02T22:06:27.449Z,46.97
2023-03-02T22:08:54.514Z,51.90
2023-03-02T22:11:23.883Z,49.42
2023-03-02T22:13:52.638Z,49.00
2023-03-02T22:16:21.662Z,47.13
2023-03-02T22:18:55.077Z,49.75
2023-03-02T22:21:31.340Z,49.25
2023-03-02T22:24:06.055Z,43.63
2023-03-02T22:26:35.443Z,48.65
2023-03-02T22:29:13.309Z,47.42
2023-03-02T22:31:43.277Z,40.47
2023-03-02T22:34:14.494Z,40.22
2023-03-02T22:36:41.498Z,39.95
2023-03-02T22:39:15.369Z,36.55
2023-03-02T22:41:42.299Z,32.00
2023-03-02T22:44:11.705Z,34.53
2023-03-02T22:46:39.929Z,33.58
2023-03-02T22:49:16.435Z,31.55
2023-03-02T22:51:44.606Z,30.08
2023-03-02T22:54:21.700Z,28.38
2023-03-02T22:56:50.003Z,29.58
2023-03-02T22:59:24.477Z,35.40
2023-03-02T23:01:52.801Z,29.23
2023-03-02T23:04:23.995Z,29.85
2023-03-02T23:06:52.669Z,28.48
2023-03-02T23:09:22.097Z,30.80
2023-03-02T23:11:50.550Z,25.92
2023-03-02T23:14:24.991Z,28.17
2023-03-02T23:16:54.812Z,29.53
2023-03-02T23:19:23.241Z,25.90
2023-03-02T23:21:50.279Z,29.95
2023-03-02T23:24:19.005Z,30.33
2023-03-02T23:26:46.099Z,23.67
2023-03-02T23:29:16.191Z,30.52
2023-03-02T23:31:45.828Z,28.00
2023-03-02T23:34:13.763Z,28.83
2023-03-02T23:36:42.307Z,26.92
2023-03-02T23:39:10.015Z,23.77
2023-03-02T23:41:38.618Z,28.70
2023-03-02T23:44:07.019Z,27.20
2023-03-02T23:46:33.946Z,30.00
2023-03-02T23:49:01.242Z,28.38
2023-03-02T23:51:28.180Z,29.75
2023-03-02T23:53:56.545Z,26.85
2023-03-02T23:56:23.810Z,31.10
2023-03-02T23:58:51.271Z,29.10
